Main page
METAR-TAF:

METAR-TAF

Airports :

N'Djamena International Airport

N'Djamena, Chad

latitude: 12-08N, longitude: 015-02E, elevation: 295 m

Current weather observation

The report was made 20 minutes ago, at 21:00 UTC
Wind 4 kt from the Northeast
Temperature 34°C
Humidity 28%
Pressure 1006 hPa
Visibility: 6000 m

METAR: FTTJ 202100Z 04004KT 6000 NSC 34/13 Q1006 NOSIG

Time: 22:20 (21:20 UTC)

Forecast

The report was made 3 hours and 25 minutes ago, at 17:55 UTC
Forecast valid from 20 at 18 UTC to 21 at 24 UTC
Wind 4 kt from variable directions
Visibility: 6000 m
Temporary
from 21 at 00 UTC to 21 at 07 UTC
Visibility: 4000 m
haze
Temporary
from 21 at 08 UTC to 21 at 14 UTC
Wind 10 kt from the East

TAF: FTTJ 201755Z 2018/2124 VRB04KT 6000 NSC TEMPO 2100/2107 4000 HZ TEMPO 2108/2114 10010KT

Weather observations and forecasts of more than 4000 airports (METAR and TAF reports).

The available stations are represented by yellow and red dots on the map.

Hover mouse over dot to see the name of the station.

Then click to see weather observations and forecasts.

To change the map : click on the green buttons with a black cross to zoom in, on the green button with a dash to zoom out, or on the green arrows for adjacent maps.


METAR-TAF: